Strona główna
METAR-TAF:

METAR-TAF

Lotnisko :

Baza lotnicza

Linköping, Szwecja

Szerokość geograficzna: 58-24N, Długość geograficzna: 015-31E, wysokość: 93 m

Aktualna obserwacja pogody

Raport powstał 24 minut temu, godzina 11:20 UTC
Wiatr 8 kt od zachodnio-południowy zachód
Temperatura 5°C
Wilgotność 81%
Ciśnienie 1000 hPa
Widzialność 10 km lub więcej
Rozproszone chmury na wysokości 1600 ft
Przerywane chmury na wysokości 2000 ft

METAR: ESCF 191120Z 25008KT 9999 SCT016 BKN020 05/02 Q1000

czas: 12:44 (11:44 UTC)

Prognoza

Raport powstał 14 minut temu, godzina 11:30 UTC
Prognoza ważna od 19 godzina 12 UTC do 19 godzina 16 UTC
Wiatr 9 kt od zachód
Widzialność 10 km lub więcej
Przerywane chmury na wysokości 1500 ft

TAF: ESCF 191130Z 1912/1916 28009KT 9999 BKN015 RMK MIL

Obserwacja i prognoza pogody dla ponad 4000 lotnisk (raport METAR i TAF).

Dostępne stacje oznaczono żółtymi i czerwonymi punktami na mapie.

Najedź kursorem aby zobaczyć nazwę stacji.

Kliknij aby zobaczyć obserwacje i prognozy pogody.

Aby zmienić mapę: kliknij na zielony przycisk z czarnym krzyżykiem, aby powiększyć; na zielony przycisk z myślnikiem, aby pomniejszyć; na zielone strzałki, aby przejść do map sąsiednich.


METAR-TAF: